sensor_id;sensor_type;location;lat;lon;timestamp;pressure;altitude;pressure_sealevel;temperature;humidity
41636;BME280;27623;51.966;4.602;2023-02-22T00:00:44;64088.16;;;7.43;100.00
41636;BME280;27623;51.966;4.602;2023-02-22T00:05:56;64035.97;;;7.30;100.00
41636;BME280;27623;51.966;4.602;2023-02-22T00:08:31;64046.16;;;7.44;100.00
41636;BME280;27623;51.966;4.602;2023-02-22T00:11:01;64021.91;;;7.45;100.00
41636;BME280;27623;51.966;4.602;2023-02-22T00:13:28;64035.66;;;7.46;100.00
41636;BME280;27623;51.966;4.602;2023-02-22T00:15:57;64009.56;;;7.43;100.00
41636;BME280;27623;51.966;4.602;2023-02-22T00:18:23;64016.09;;;7.42;100.00
41636;BME280;27623;51.966;4.602;2023-02-22T00:20:52;64024.41;;;7.24;100.00
41636;BME280;27623;51.966;4.602;2023-02-22T00:23:21;64032.03;;;7.45;100.00
41636;BME280;27623;51.966;4.602;2023-02-22T00:25:49;63986.56;;;7.19;100.00
41636;BME280;27623;51.966;4.602;2023-02-22T00:28:15;64034.16;;;7.12;100.00
41636;BME280;27623;51.966;4.602;2023-02-22T00:30:41;63997.25;;;7.20;100.00
41636;BME280;27623;51.966;4.602;2023-02-22T00:33:08;63999.59;;;7.17;100.00
41636;BME280;27623;51.966;4.602;2023-02-22T00:35:34;63982.75;;;7.16;100.00
41636;BME280;27623;51.966;4.602;2023-02-22T00:38:01;63974.59;;;6.94;100.00
41636;BME280;27623;51.966;4.602;2023-02-22T00:40:31;64008.28;;;7.04;100.00
41636;BME280;27623;51.966;4.602;2023-02-22T00:42:58;63994.50;;;6.96;100.00
41636;BME280;27623;51.966;4.602;2023-02-22T00:45:28;63920.31;;;6.72;100.00
41636;BME280;27623;51.966;4.602;2023-02-22T00:47:55;63993.25;;;7.14;100.00
41636;BME280;27623;51.966;4.602;2023-02-22T00:50:21;64008.97;;;7.07;100.00
41636;BME280;27623;51.966;4.602;2023-02-22T00:52:48;63978.03;;;7.07;100.00
41636;BME280;27623;51.966;4.602;2023-02-22T00:55:18;63976.78;;;7.10;100.00
41636;BME280;27623;51.966;4.602;2023-02-22T00:57:45;64037.94;;;7.08;100.00
41636;BME280;27623;51.966;4.602;2023-02-22T01:00:17;63996.69;;;7.05;100.00
41636;BME280;27623;51.966;4.602;2023-02-22T01:02:45;63964.44;;;6.73;100.00
41636;BME280;27623;51.966;4.602;2023-02-22T01:05:12;63971.16;;;6.81;100.00
41636;BME280;27623;51.966;4.602;2023-02-22T01:07:39;63962.13;;;6.97;100.00
41636;BME280;27623;51.966;4.602;2023-02-22T01:10:06;63950.88;;;6.81;100.00
41636;BME280;27623;51.966;4.602;2023-02-22T01:12:33;64008.44;;;7.07;100.00
41636;BME280;27623;51.966;4.602;2023-02-22T01:15:00;63980.53;;;6.78;100.00
41636;BME280;27623;51.966;4.602;2023-02-22T01:17:28;63980.94;;;6.98;100.00
41636;BME280;27623;51.966;4.602;2023-02-22T01:19:54;63949.25;;;6.80;100.00
41636;BME280;27623;51.966;4.602;2023-02-22T01:22:20;63991.59;;;6.84;100.00
41636;BME280;27623;51.966;4.602;2023-02-22T01:24:49;63982.38;;;6.82;100.00
41636;BME280;27623;51.966;4.602;2023-02-22T01:27:16;63962.47;;;6.80;100.00
41636;BME280;27623;51.966;4.602;2023-02-22T01:29:41;63956.66;;;6.70;100.00
41636;BME280;27623;51.966;4.602;2023-02-22T01:32:07;63945.59;;;6.58;100.00
41636;BME280;27623;51.966;4.602;2023-02-22T01:34:36;63924.47;;;6.59;100.00
41636;BME280;27623;51.966;4.602;2023-02-22T01:37:02;63947.78;;;6.67;100.00
41636;BME280;27623;51.966;4.602;2023-02-22T01:39:27;63938.22;;;6.74;100.00
41636;BME280;27623;51.966;4.602;2023-02-22T01:41:53;63985.44;;;6.90;100.00
41636;BME280;27623;51.966;4.602;2023-02-22T01:44:26;63936.59;;;6.73;100.00
41636;BME280;27623;51.966;4.602;2023-02-22T01:46:54;63913.97;;;6.54;100.00
41636;BME280;27623;51.966;4.602;2023-02-22T01:49:20;63968.25;;;6.83;100.00
41636;BME280;27623;51.966;4.602;2023-02-22T01:51:49;63962.44;;;6.59;100.00
41636;BME280;27623;51.966;4.602;2023-02-22T01:54:39;63995.72;;;6.71;100.00
41636;BME280;27623;51.966;4.602;2023-02-22T01:57:33;63965.72;;;6.76;100.00
41636;BME280;27623;51.966;4.602;2023-02-22T02:00:11;63957.22;;;6.78;100.00
41636;BME280;27623;51.966;4.602;2023-02-22T02:02:42;63981.28;;;6.81;100.00
41636;BME280;27623;51.966;4.602;2023-02-22T02:05:09;63939.84;;;6.90;100.00
41636;BME280;27623;51.966;4.602;2023-02-22T02:07:36;63982.94;;;6.97;100.00
41636;BME280;27623;51.966;4.602;2023-02-22T02:10:05;63973.13;;;6.88;100.00
41636;BME280;27623;51.966;4.602;2023-02-22T02:12:33;63943.09;;;6.79;100.00
41636;BME280;27623;51.966;4.602;2023-02-22T02:15:16;63980.03;;;6.85;100.00
41636;BME280;27623;51.966;4.602;2023-02-22T02:17:41;63970.41;;;6.78;100.00
41636;BME280;27623;51.966;4.602;2023-02-22T02:23:22;63983.44;;;6.90;100.00
41636;BME280;27623;51.966;4.602;2023-02-22T02:29:30;63890.59;;;6.25;100.00
41636;BME280;27623;51.966;4.602;2023-02-22T02:37:10;63951.03;;;6.63;100.00
41636;BME280;27623;51.966;4.602;2023-02-22T02:39:55;63890.06;;;6.32;100.00
41636;BME280;27623;51.966;4.602;2023-02-22T02:42:32;63923.84;;;6.30;100.00
41636;BME280;27623;51.966;4.602;2023-02-22T02:45:05;63909.25;;;6.45;100.00
41636;BME280;27623;51.966;4.602;2023-02-22T02:47:39;63917.91;;;6.46;100.00
41636;BME280;27623;51.966;4.602;2023-02-22T02:50:10;63955.16;;;6.43;100.00
41636;BME280;27623;51.966;4.602;2023-02-22T02:52:39;63898.53;;;6.09;100.00
41636;BME280;27623;51.966;4.602;2023-02-22T02:55:06;63886.28;;;6.21;100.00
41636;BME280;27623;51.966;4.602;2023-02-22T02:57:33;63896.75;;;6.33;100.00
41636;BME280;27623;51.966;4.602;2023-02-22T02:59:58;63901.09;;;6.37;100.00
41636;BME280;27623;51.966;4.602;2023-02-22T03:08:16;63853.28;;;5.78;100.00
41636;BME280;27623;51.966;4.602;2023-02-22T03:18:53;63846.31;;;6.00;100.00
41636;BME280;27623;51.966;4.602;2023-02-22T03:21:35;63890.44;;;6.23;100.00
41636;BME280;27623;51.966;4.602;2023-02-22T03:24:28;63875.94;;;6.04;100.00
41636;BME280;27623;51.966;4.602;2023-02-22T03:27:02;63907.38;;;6.12;100.00
41636;BME280;27623;51.966;4.602;2023-02-22T03:29:37;63907.91;;;6.06;100.00
41636;BME280;27623;51.966;4.602;2023-02-22T03:32:08;63876.69;;;6.22;100.00
41636;BME280;27623;51.966;4.602;2023-02-22T03:34:39;63921.72;;;6.35;100.00
41636;BME280;27623;51.966;4.602;2023-02-22T03:37:19;63889.00;;;6.38;100.00
41636;BME280;27623;51.966;4.602;2023-02-22T03:39:51;63925.88;;;6.44;100.00
41636;BME280;27623;51.966;4.602;2023-02-22T03:42:34;63879.59;;;6.34;100.00
41636;BME280;27623;51.966;4.602;2023-02-22T03:45:03;63924.06;;;6.40;100.00
41636;BME280;27623;51.966;4.602;2023-02-22T03:47:39;63907.94;;;6.20;100.00
41636;BME280;27623;51.966;4.602;2023-02-22T03:50:21;63919.00;;;6.40;100.00
41636;BME280;27623;51.966;4.602;2023-02-22T03:52:51;63918.63;;;6.28;100.00
41636;BME280;27623;51.966;4.602;2023-02-22T03:55:17;63890.97;;;6.23;100.00
41636;BME280;27623;51.966;4.602;2023-02-22T03:57:47;63916.81;;;6.31;100.00
41636;BME280;27623;51.966;4.602;2023-02-22T04:00:19;63926.00;;;6.25;100.00
41636;BME280;27623;51.966;4.602;2023-02-22T04:02:45;63889.69;;;6.12;100.00
41636;BME280;27623;51.966;4.602;2023-02-22T04:05:10;63893.84;;;6.14;100.00
41636;BME280;27623;51.966;4.602;2023-02-22T04:07:38;63897.81;;;6.13;100.00
41636;BME280;27623;51.966;4.602;2023-02-22T04:10:04;63937.41;;;6.29;100.00
41636;BME280;27623;51.966;4.602;2023-02-22T04:12:33;63872.31;;;6.10;100.00
41636;BME280;27623;51.966;4.602;2023-02-22T04:14:58;63929.63;;;6.19;100.00
41636;BME280;27623;51.966;4.602;2023-02-22T04:17:24;63870.00;;;6.13;100.00
41636;BME280;27623;51.966;4.602;2023-02-22T04:19:49;63879.34;;;5.96;100.00
41636;BME280;27623;51.966;4.602;2023-02-22T04:22:15;63869.44;;;5.98;100.00
41636;BME280;27623;51.966;4.602;2023-02-22T04:24:41;63860.56;;;5.95;100.00
41636;BME280;27623;51.966;4.602;2023-02-22T04:27:06;63879.72;;;6.01;100.00
41636;BME280;27623;51.966;4.602;2023-02-22T04:29:31;63909.88;;;6.05;100.00
41636;BME280;27623;51.966;4.602;2023-02-22T04:31:57;63895.06;;;6.03;100.00
41636;BME280;27623;51.966;4.602;2023-02-22T04:34:22;63865.78;;;5.90;100.00
41636;BME280;27623;51.966;4.602;2023-02-22T04:36:47;63868.84;;;5.91;100.00
41636;BME280;27623;51.966;4.602;2023-02-22T04:39:13;63850.94;;;5.88;100.00
41636;BME280;27623;51.966;4.602;2023-02-22T04:41:39;63894.91;;;6.01;100.00
41636;BME280;27623;51.966;4.602;2023-02-22T04:44:04;63879.19;;;6.00;100.00
41636;BME280;27623;51.966;4.602;2023-02-22T04:46:30;63905.38;;;5.99;100.00
41636;BME280;27623;51.966;4.602;2023-02-22T04:48:55;63847.75;;;6.06;100.00
41636;BME280;27623;51.966;4.602;2023-02-22T04:51:22;63892.34;;;5.94;100.00
41636;BME280;27623;51.966;4.602;2023-02-22T04:53:48;63877.00;;;5.91;100.00
41636;BME280;27623;51.966;4.602;2023-02-22T04:56:16;63841.91;;;5.75;100.00
41636;BME280;27623;51.966;4.602;2023-02-22T04:58:41;63846.78;;;5.79;100.00
41636;BME280;27623;51.966;4.602;2023-02-22T05:01:10;63867.59;;;5.94;100.00
41636;BME280;27623;51.966;4.602;2023-02-22T05:03:38;63851.38;;;6.00;100.00
41636;BME280;27623;51.966;4.602;2023-02-22T05:06:04;63896.13;;;5.90;100.00
41636;BME280;27623;51.966;4.602;2023-02-22T05:08:29;63852.78;;;5.92;100.00
41636;BME280;27623;51.966;4.602;2023-02-22T05:10:54;63853.47;;;5.81;100.00
41636;BME280;27623;51.966;4.602;2023-02-22T05:13:20;63821.19;;;5.89;100.00
41636;BME280;27623;51.966;4.602;2023-02-22T05:15:46;63887.47;;;6.03;100.00
41636;BME280;27623;51.966;4.602;2023-02-22T05:18:12;63858.16;;;5.76;100.00
41636;BME280;27623;51.966;4.602;2023-02-22T05:20:38;63848.94;;;5.67;100.00
41636;BME280;27623;51.966;4.602;2023-02-22T05:23:03;63842.97;;;5.69;100.00
41636;BME280;27623;51.966;4.602;2023-02-22T05:25:30;63829.03;;;5.51;100.00
41636;BME280;27623;51.966;4.602;2023-02-22T05:27:59;63846.59;;;5.70;100.00
41636;BME280;27623;51.966;4.602;2023-02-22T05:30:28;63832.47;;;5.64;100.00
41636;BME280;27623;51.966;4.602;2023-02-22T05:32:54;63817.31;;;5.64;100.00
41636;BME280;27623;51.966;4.602;2023-02-22T05:35:20;63870.25;;;5.75;100.00
41636;BME280;27623;51.966;4.602;2023-02-22T05:37:46;63854.91;;;5.80;100.00
41636;BME280;27623;51.966;4.602;2023-02-22T05:40:12;63833.25;;;5.74;100.00
41636;BME280;27623;51.966;4.602;2023-02-22T05:42:39;63862.66;;;5.75;100.00
41636;BME280;27623;51.966;4.602;2023-02-22T05:45:05;63829.84;;;5.90;100.00
41636;BME280;27623;51.966;4.602;2023-02-22T05:47:31;63865.59;;;5.87;100.00
41636;BME280;27623;51.966;4.602;2023-02-22T05:49:56;63864.66;;;5.75;100.00
41636;BME280;27623;51.966;4.602;2023-02-22T05:52:21;63852.75;;;5.85;100.00
41636;BME280;27623;51.966;4.602;2023-02-22T05:54:47;63847.88;;;5.87;100.00
41636;BME280;27623;51.966;4.602;2023-02-22T05:57:12;63867.78;;;5.97;100.00
41636;BME280;27623;51.966;4.602;2023-02-22T05:59:38;63857.81;;;5.85;100.00
41636;BME280;27623;51.966;4.602;2023-02-22T06:02:04;63841.38;;;5.74;100.00
41636;BME280;27623;51.966;4.602;2023-02-22T06:04:29;63849.00;;;5.89;100.00
41636;BME280;27623;51.966;4.602;2023-02-22T06:06:55;63895.38;;;5.80;100.00
41636;BME280;27623;51.966;4.602;2023-02-22T06:09:20;63859.59;;;5.82;100.00
41636;BME280;27623;51.966;4.602;2023-02-22T06:11:45;63875.69;;;5.87;100.00
41636;BME280;27623;51.966;4.602;2023-02-22T06:14:11;63856.06;;;6.02;100.00
41636;BME280;27623;51.966;4.602;2023-02-22T06:16:37;63880.78;;;5.95;100.00
41636;BME280;27623;51.966;4.602;2023-02-22T06:19:02;63883.16;;;6.06;100.00
41636;BME280;27623;51.966;4.602;2023-02-22T06:21:28;63874.47;;;6.05;100.00
41636;BME280;27623;51.966;4.602;2023-02-22T06:23:54;63863.47;;;6.07;100.00
41636;BME280;27623;51.966;4.602;2023-02-22T06:26:19;63849.00;;;6.03;100.00
41636;BME280;27623;51.966;4.602;2023-02-22T06:28:45;63896.00;;;6.02;100.00
41636;BME280;27623;51.966;4.602;2023-02-22T06:31:11;63856.00;;;5.88;100.00
41636;BME280;27623;51.966;4.602;2023-02-22T06:33:36;63853.09;;;5.76;100.00
41636;BME280;27623;51.966;4.602;2023-02-22T06:36:02;63865.59;;;5.87;100.00
41636;BME280;27623;51.966;4.602;2023-02-22T06:38:30;63902.75;;;5.77;100.00
41636;BME280;27623;51.966;4.602;2023-02-22T06:40:56;63863.41;;;5.85;100.00
41636;BME280;27623;51.966;4.602;2023-02-22T06:43:22;63848.59;;;5.83;100.00
41636;BME280;27623;51.966;4.602;2023-02-22T06:45:49;63818.25;;;5.76;100.00
41636;BME280;27623;51.966;4.602;2023-02-22T06:48:14;63872.63;;;5.80;100.00
41636;BME280;27623;51.966;4.602;2023-02-22T06:50:40;63865.94;;;5.78;100.00
41636;BME280;27623;51.966;4.602;2023-02-22T06:53:05;63890.53;;;5.90;100.00
41636;BME280;27623;51.966;4.602;2023-02-22T06:55:32;63890.00;;;5.96;100.00
41636;BME280;27623;51.966;4.602;2023-02-22T06:57:59;63877.75;;;6.01;100.00
41636;BME280;27623;51.966;4.602;2023-02-22T07:00:26;63893.28;;;6.06;100.00
41636;BME280;27623;51.966;4.602;2023-02-22T07:02:53;63881.72;;;6.14;100.00
41636;BME280;27623;51.966;4.602;2023-02-22T07:05:20;63886.94;;;5.96;100.00
41636;BME280;27623;51.966;4.602;2023-02-22T07:07:47;63934.09;;;6.04;100.00
41636;BME280;27623;51.966;4.602;2023-02-22T07:10:25;63930.16;;;6.19;100.00
41636;BME280;27623;51.966;4.602;2023-02-22T07:12:51;63873.22;;;6.02;100.00
41636;BME280;27623;51.966;4.602;2023-02-22T07:15:18;63866.72;;;5.96;100.00
41636;BME280;27623;51.966;4.602;2023-02-22T07:17:48;63888.03;;;6.04;100.00
41636;BME280;27623;51.966;4.602;2023-02-22T07:20:14;63886.25;;;6.14;100.00
41636;BME280;27623;51.966;4.602;2023-02-22T07:22:39;63882.63;;;6.13;100.00
41636;BME280;27623;51.966;4.602;2023-02-22T07:25:08;63880.00;;;5.84;100.00
41636;BME280;27623;51.966;4.602;2023-02-22T07:27:38;63861.97;;;5.86;100.00
41636;BME280;27623;51.966;4.602;2023-02-22T07:30:16;63890.88;;;5.87;100.00
41636;BME280;27623;51.966;4.602;2023-02-22T07:32:43;63874.66;;;6.01;100.00
41636;BME280;27623;51.966;4.602;2023-02-22T07:35:32;63897.59;;;6.03;100.00
41636;BME280;27623;51.966;4.602;2023-02-22T07:38:01;63875.94;;;5.97;100.00
41636;BME280;27623;51.966;4.602;2023-02-22T07:40:27;63866.47;;;5.86;100.00
41636;BME280;27623;51.966;4.602;2023-02-22T07:45:28;63866.66;;;5.81;100.00
41636;BME280;27623;51.966;4.602;2023-02-22T07:47:54;63885.13;;;5.92;100.00
41636;BME280;27623;51.966;4.602;2023-02-22T07:50:22;63877.88;;;5.90;100.00
41636;BME280;27623;51.966;4.602;2023-02-22T07:52:50;63872.06;;;5.79;100.00
41636;BME280;27623;51.966;4.602;2023-02-22T07:55:17;63907.88;;;5.92;100.00
41636;BME280;27623;51.966;4.602;2023-02-22T07:57:48;63853.66;;;5.83;100.00
41636;BME280;27623;51.966;4.602;2023-02-22T08:00:15;63850.75;;;5.78;100.00
41636;BME280;27623;51.966;4.602;2023-02-22T08:02:42;63918.00;;;5.99;100.00
41636;BME280;27623;51.966;4.602;2023-02-22T08:05:09;63901.75;;;6.05;100.00
41636;BME280;27623;51.966;4.602;2023-02-22T08:07:37;63879.72;;;5.94;100.00
41636;BME280;27623;51.966;4.602;2023-02-22T08:10:05;63865.81;;;6.04;100.00
41636;BME280;27623;51.966;4.602;2023-02-22T08:12:33;63911.91;;;6.12;100.00
41636;BME280;27623;51.966;4.602;2023-02-22T08:14:58;63876.28;;;5.95;100.00
41636;BME280;27623;51.966;4.602;2023-02-22T08:17:26;63890.56;;;5.97;100.00
41636;BME280;27623;51.966;4.602;2023-02-22T08:19:51;63899.41;;;6.00;100.00
41636;BME280;27623;51.966;4.602;2023-02-22T08:22:16;63897.97;;;6.08;100.00
41636;BME280;27623;51.966;4.602;2023-02-22T08:24:42;63891.13;;;6.18;100.00
41636;BME280;27623;51.966;4.602;2023-02-22T08:27:07;63887.84;;;6.08;100.00
41636;BME280;27623;51.966;4.602;2023-02-22T08:29:33;63904.69;;;6.17;100.00
41636;BME280;27623;51.966;4.602;2023-02-22T08:31:59;63931.63;;;6.18;100.00
41636;BME280;27623;51.966;4.602;2023-02-22T08:34:25;63900.16;;;6.25;100.00
41636;BME280;27623;51.966;4.602;2023-02-22T08:36:51;63923.16;;;6.34;100.00
41636;BME280;27623;51.966;4.602;2023-02-22T08:39:16;63899.63;;;6.17;100.00
41636;BME280;27623;51.966;4.602;2023-02-22T08:41:42;63925.31;;;6.22;100.00
41636;BME280;27623;51.966;4.602;2023-02-22T08:44:07;63928.03;;;6.32;100.00
41636;BME280;27623;51.966;4.602;2023-02-22T08:46:33;63926.75;;;6.28;100.00
41636;BME280;27623;51.966;4.602;2023-02-22T08:48:58;63921.84;;;6.24;100.00
41636;BME280;27623;51.966;4.602;2023-02-22T08:51:25;63878.84;;;6.24;100.00
41636;BME280;27623;51.966;4.602;2023-02-22T08:53:51;63918.44;;;6.32;100.00
41636;BME280;27623;51.966;4.602;2023-02-22T08:56:18;63951.03;;;6.55;100.00
41636;BME280;27623;51.966;4.602;2023-02-22T08:58:44;63929.88;;;6.57;100.00
41636;BME280;27623;51.966;4.602;2023-02-22T09:01:10;63949.38;;;6.47;100.00
41636;BME280;27623;51.966;4.602;2023-02-22T09:03:35;63913.94;;;6.47;100.00
41636;BME280;27623;51.966;4.602;2023-02-22T09:06:00;63902.19;;;6.38;100.00
41636;BME280;27623;51.966;4.602;2023-02-22T09:08:26;63920.63;;;6.41;100.00
41636;BME280;27623;51.966;4.602;2023-02-22T09:10:51;63944.13;;;6.44;100.00
41636;BME280;27623;51.966;4.602;2023-02-22T09:13:17;63922.63;;;6.41;100.00
41636;BME280;27623;51.966;4.602;2023-02-22T09:15:43;63919.00;;;6.33;100.00
41636;BME280;27623;51.966;4.602;2023-02-22T09:18:10;63935.09;;;6.45;100.00
41636;BME280;27623;51.966;4.602;2023-02-22T09:20:37;63945.41;;;6.41;100.00
41636;BME280;27623;51.966;4.602;2023-02-22T09:23:04;63959.72;;;6.57;100.00
41636;BME280;27623;51.966;4.602;2023-02-22T09:25:30;63940.34;;;6.55;100.00
41636;BME280;27623;51.966;4.602;2023-02-22T09:27:56;63948.13;;;6.58;100.00
41636;BME280;27623;51.966;4.602;2023-02-22T09:30:33;63946.31;;;6.53;100.00
41636;BME280;27623;51.966;4.602;2023-02-22T09:33:07;63988.69;;;6.79;100.00
41636;BME280;27623;51.966;4.602;2023-02-22T09:35:39;63992.63;;;6.71;100.00
41636;BME280;27623;51.966;4.602;2023-02-22T09:38:11;63987.56;;;6.71;100.00
41636;BME280;27623;51.966;4.602;2023-02-22T09:40:51;63995.75;;;6.85;100.00
41636;BME280;27623;51.966;4.602;2023-02-22T09:43:43;63986.88;;;6.82;100.00
41636;BME280;27623;51.966;4.602;2023-02-22T09:46:34;63996.84;;;6.94;100.00
41636;BME280;27623;51.966;4.602;2023-02-22T09:51:47;64008.13;;;7.23;100.00
41636;BME280;27623;51.966;4.602;2023-02-22T09:54:23;64013.53;;;7.28;100.00
41636;BME280;27623;51.966;4.602;2023-02-22T09:56:55;64014.78;;;7.17;100.00
41636;BME280;27623;51.966;4.602;2023-02-22T09:59:27;64013.19;;;7.30;100.00
41636;BME280;27623;51.966;4.602;2023-02-22T10:02:02;64016.06;;;7.21;100.00
41636;BME280;27623;51.966;4.602;2023-02-22T10:04:54;64017.34;;;7.17;100.00
41636;BME280;27623;51.966;4.602;2023-02-22T10:07:46;64010.47;;;7.20;100.00
41636;BME280;27623;51.966;4.602;2023-02-22T10:10:17;64035.44;;;7.22;100.00
41636;BME280;27623;51.966;4.602;2023-02-22T10:13:04;64007.53;;;7.01;100.00
41636;BME280;27623;51.966;4.602;2023-02-22T10:26:29;64077.84;;;7.69;100.00
41636;BME280;27623;51.966;4.602;2023-02-22T10:31:45;64056.84;;;7.45;100.00
41636;BME280;27623;51.966;4.602;2023-02-22T10:34:16;64084.56;;;7.64;100.00
41636;BME280;27623;51.966;4.602;2023-02-22T10:36:47;64067.53;;;7.59;100.00
41636;BME280;27623;51.966;4.602;2023-02-22T10:41:49;64054.47;;;7.40;100.00
41636;BME280;27623;51.966;4.602;2023-02-22T10:44:17;64090.56;;;7.76;100.00
41636;BME280;27623;51.966;4.602;2023-02-22T10:46:43;64062.81;;;7.57;100.00
41636;BME280;27623;51.966;4.602;2023-02-22T10:49:11;64096.00;;;7.96;100.00
41636;BME280;27623;51.966;4.602;2023-02-22T10:51:42;64119.94;;;8.11;100.00
41636;BME280;27623;51.966;4.602;2023-02-22T10:56:50;64144.63;;;8.36;100.00
41636;BME280;27623;51.966;4.602;2023-02-22T11:02:00;64160.06;;;8.39;100.00
41636;BME280;27623;51.966;4.602;2023-02-22T11:04:26;64156.78;;;8.43;100.00
41636;BME280;27623;51.966;4.602;2023-02-22T11:09:23;64108.19;;;8.31;100.00
41636;BME280;27623;51.966;4.602;2023-02-22T11:12:07;64142.25;;;8.32;100.00
41636;BME280;27623;51.966;4.602;2023-02-22T11:14:32;64193.97;;;8.51;100.00
41636;BME280;27623;51.966;4.602;2023-02-22T11:16:59;64160.59;;;8.53;100.00
41636;BME280;27623;51.966;4.602;2023-02-22T11:19:30;64152.63;;;8.55;100.00
41636;BME280;27623;51.966;4.602;2023-02-22T11:21:59;64185.81;;;8.58;100.00
41636;BME280;27623;51.966;4.602;2023-02-22T11:24:43;64187.81;;;8.57;100.00
41636;BME280;27623;51.966;4.602;2023-02-22T11:27:42;64147.00;;;8.55;100.00
41636;BME280;27623;51.966;4.602;2023-02-22T11:30:30;64188.16;;;8.55;100.00
41636;BME280;27623;51.966;4.602;2023-02-22T11:35:54;64164.22;;;8.47;100.00
41636;BME280;27623;51.966;4.602;2023-02-22T11:38:24;64194.34;;;8.71;100.00
41636;BME280;27623;51.966;4.602;2023-02-22T11:41:25;64153.53;;;8.47;100.00
41636;BME280;27623;51.966;4.602;2023-02-22T11:43:52;64167.84;;;8.55;100.00
41636;BME280;27623;51.966;4.602;2023-02-22T11:49:10;64197.25;;;8.61;100.00
41636;BME280;27623;51.966;4.602;2023-02-22T11:52:04;64162.97;;;8.58;100.00
41636;BME280;27623;51.966;4.602;2023-02-22T12:08:54;64186.75;;;8.92;100.00
41636;BME280;27623;51.966;4.602;2023-02-22T12:14:16;64209.06;;;9.13;97.85
41636;BME280;27623;51.966;4.602;2023-02-22T12:19:42;64264.78;;;9.17;97.97
41636;BME280;27623;51.966;4.602;2023-02-22T12:22:19;64235.19;;;9.02;99.13
41636;BME280;27623;51.966;4.602;2023-02-22T12:24:48;64197.97;;;9.00;98.24
41636;BME280;27623;51.966;4.602;2023-02-22T12:27:20;64228.09;;;8.95;98.65
41636;BME280;27623;51.966;4.602;2023-02-22T12:30:00;64224.84;;;8.92;98.53
41636;BME280;27623;51.966;4.602;2023-02-22T12:32:56;64203.97;;;9.06;99.79
41636;BME280;27623;51.966;4.602;2023-02-22T12:35:29;64211.41;;;9.03;99.25
41636;BME280;27623;51.966;4.602;2023-02-22T12:38:12;64228.84;;;9.12;99.34
41636;BME280;27623;51.966;4.602;2023-02-22T12:40:51;64245.75;;;9.14;98.97
41636;BME280;27623;51.966;4.602;2023-02-22T12:43:26;64237.38;;;9.32;99.38
41636;BME280;27623;51.966;4.602;2023-02-22T12:51:39;64233.75;;;9.10;99.58
41636;BME280;27623;51.966;4.602;2023-02-22T12:54:20;64213.06;;;9.05;99.59
41636;BME280;27623;51.966;4.602;2023-02-22T12:56:58;64206.31;;;9.17;99.70
41636;BME280;27623;51.966;4.602;2023-02-22T12:59:54;64199.06;;;9.01;100.00
41636;BME280;27623;51.966;4.602;2023-02-22T13:02:29;64240.81;;;9.02;100.00
41636;BME280;27623;51.966;4.602;2023-02-22T13:04:57;64193.44;;;9.08;100.00
41636;BME280;27623;51.966;4.602;2023-02-22T13:23:51;64205.41;;;9.26;100.00
41636;BME280;27623;51.966;4.602;2023-02-22T13:26:24;64251.72;;;9.12;100.00
41636;BME280;27623;51.966;4.602;2023-02-22T13:42:31;64271.53;;;9.33;100.00
41636;BME280;27623;51.966;4.602;2023-02-22T13:52:57;64229.19;;;9.46;100.00
41636;BME280;27623;51.966;4.602;2023-02-22T13:55:27;64238.63;;;9.43;100.00
41636;BME280;27623;51.966;4.602;2023-02-22T13:58:07;64272.63;;;9.55;100.00
41636;BME280;27623;51.966;4.602;2023-02-22T14:00:49;64294.59;;;9.57;100.00
41636;BME280;27623;51.966;4.602;2023-02-22T14:03:32;64241.38;;;9.52;100.00
41636;BME280;27623;51.966;4.602;2023-02-22T14:06:02;64307.84;;;9.64;100.00
41636;BME280;27623;51.966;4.602;2023-02-22T14:11:05;64294.22;;;9.66;100.00
41636;BME280;27623;51.966;4.602;2023-02-22T14:16:20;64293.31;;;9.68;100.00
41636;BME280;27623;51.966;4.602;2023-02-22T14:18:47;64296.94;;;9.61;100.00
41636;BME280;27623;51.966;4.602;2023-02-22T14:21:15;64300.59;;;9.62;100.00
41636;BME280;27623;51.966;4.602;2023-02-22T14:28:45;64273.50;;;9.61;100.00
41636;BME280;27623;51.966;4.602;2023-02-22T14:31:29;64263.88;;;9.61;100.00
41636;BME280;27623;51.966;4.602;2023-02-22T14:38:57;64298.06;;;9.55;100.00
41636;BME280;27623;51.966;4.602;2023-02-22T14:41:28;64249.38;;;9.50;100.00
41636;BME280;27623;51.966;4.602;2023-02-22T14:43:55;64270.97;;;9.54;100.00
41636;BME280;27623;51.966;4.602;2023-02-22T14:46:26;64254.81;;;9.55;100.00
41636;BME280;27623;51.966;4.602;2023-02-22T14:48:58;64271.50;;;9.61;100.00
41636;BME280;27623;51.966;4.602;2023-02-22T14:51:29;64258.44;;;9.63;100.00
41636;BME280;27623;51.966;4.602;2023-02-22T14:54:10;64291.69;;;9.66;100.00
41636;BME280;27623;51.966;4.602;2023-02-22T14:56:45;64286.41;;;9.63;100.00
41636;BME280;27623;51.966;4.602;2023-02-22T14:59:22;64304.97;;;9.74;100.00
41636;BME280;27623;51.966;4.602;2023-02-22T15:02:03;64301.13;;;9.77;100.00
41636;BME280;27623;51.966;4.602;2023-02-22T15:04:30;64268.97;;;9.69;100.00
41636;BME280;27623;51.966;4.602;2023-02-22T15:07:00;64252.25;;;9.62;100.00
41636;BME280;27623;51.966;4.602;2023-02-22T15:09:31;64297.84;;;9.81;100.00
41636;BME280;27623;51.966;4.602;2023-02-22T15:14:27;64279.69;;;9.69;100.00
41636;BME280;27623;51.966;4.602;2023-02-22T15:16:58;64288.59;;;9.65;100.00
41636;BME280;27623;51.966;4.602;2023-02-22T15:19:29;64270.06;;;9.70;100.00
41636;BME280;27623;51.966;4.602;2023-02-22T15:21:57;64293.50;;;9.70;100.00
41636;BME280;27623;51.966;4.602;2023-02-22T15:24:26;64287.50;;;9.72;100.00
41636;BME280;27623;51.966;4.602;2023-02-22T15:26:52;64312.94;;;9.72;100.00
41636;BME280;27623;51.966;4.602;2023-02-22T15:29:33;64292.97;;;9.77;100.00
41636;BME280;27623;51.966;4.602;2023-02-22T15:31:59;64275.88;;;9.73;100.00
41636;BME280;27623;51.966;4.602;2023-02-22T15:34:30;64316.22;;;9.68;100.00
41636;BME280;27623;51.966;4.602;2023-02-22T15:37:01;64286.06;;;9.73;100.00
41636;BME280;27623;51.966;4.602;2023-02-22T15:39:38;64272.97;;;9.60;100.00